Time;durP1;ratioP1;P1;durP2;ratioP2;P2;SDS_P1;SDS_P2;PMS_P1;PMS_P2;Temp;Humidity;BMP_temperature;BMP_pressure;BME280_temperature;BME280_humidity;BME280_pressure;Samples;Min_cycle;Max_cycle;Signal;HPM_P1;HPM_P2
2023/08/08 07:14:21;;;;;;;6.20;1.80;;;15.70;78.90;;;;;;5049153;28;20060;-82
2023/08/08 07:16:49;;;;;;;4.68;2.03;;;15.70;78.60;;;;;;5050720;28;20152;-80
2023/08/08 07:19:16;;;;;;;8.43;1.95;;;15.70;78.80;;;;;;5053535;28;20037;-83
2023/08/08 07:21:43;;;;;;;7.50;1.83;;;15.60;78.60;;;;;;5050931;28;20029;-86
2023/08/08 07:24:10;;;;;;;5.90;1.63;;;15.70;79.30;;;;;;5050355;28;20411;-83
2023/08/08 07:26:38;;;;;;;6.53;1.88;;;15.60;79.10;;;;;;5050084;28;20029;-83
2023/08/08 07:29:05;;;;;;;8.95;2.00;;;15.60;79.20;;;;;;5050279;28;20090;-84
2023/08/08 07:31:33;;;;;;;5.38;1.75;;;15.60;79.20;;;;;;5000158;28;20052;-83
2023/08/08 07:34:00;;;;;;;4.40;1.83;;;15.50;79.70;;;;;;5035529;28;20044;-85
2023/08/08 07:36:28;;;;;;;5.45;1.80;;;15.50;79.70;;;;;;5032294;28;20517;-81
2023/08/08 07:38:59;;;;;;;5.50;1.83;;;15.50;79.90;;;;;;5058963;28;20042;-82
2023/08/08 07:41:30;;;;;;;7.68;2.00;;;15.50;80.10;;;;;;5052858;28;20045;-83
2023/08/08 07:43:58;;;;;;;5.60;1.85;;;15.40;79.80;;;;;;5035822;28;20031;-79
2023/08/08 07:46:25;;;;;;;8.50;2.30;;;15.40;80.30;;;;;;5069892;28;20079;-79
2023/08/08 07:48:52;;;;;;;8.38;2.00;;;15.40;80.20;;;;;;5035539;28;20028;-81
2023/08/08 07:51:19;;;;;;;6.13;2.00;;;15.40;80.10;;;;;;5070037;28;20120;-78
2023/08/08 07:53:47;;;;;;;5.43;2.28;;;15.40;80.40;;;;;;5028411;28;20037;-80
2023/08/08 07:56:14;;;;;;;6.22;2.00;;;15.40;80.50;;;;;;5049693;28;20036;-80
2023/08/08 07:58:41;;;;;;;6.32;2.13;;;15.30;80.90;;;;;;5050198;28;20033;-81
2023/08/08 08:01:09;;;;;;;8.65;2.20;;;15.30;81.00;;;;;;5055106;28;20103;-81
2023/08/08 08:03:36;;;;;;;14.30;2.50;;;15.30;80.90;;;;;;5070101;28;20048;-80
2023/08/08 08:06:04;;;;;;;9.13;1.90;;;15.30;81.00;;;;;;5049878;28;20414;-82
2023/08/08 08:08:31;;;;;;;5.30;2.03;;;15.30;81.20;;;;;;5061722;28;20116;-83
2023/08/08 08:10:58;;;;;;;5.47;1.95;;;15.20;81.10;;;;;;5049137;28;20135;-87
2023/08/08 08:13:26;;;;;;;5.50;2.05;;;15.30;81.10;;;;;;5063752;28;20052;-86
2023/08/08 08:15:53;;;;;;;5.97;1.98;;;15.30;81.10;;;;;;5052715;28;20024;-86
2023/08/08 08:18:20;;;;;;;3.85;1.70;;;15.20;81.30;;;;;;5068878;28;20059;-83
2023/08/08 08:20:48;;;;;;;8.82;2.25;;;15.20;81.40;;;;;;5068739;28;20025;-81
2023/08/08 08:23:16;;;;;;;5.18;2.00;;;15.20;81.40;;;;;;5035026;28;20032;-85
2023/08/08 08:25:43;;;;;;;6.65;1.88;;;15.20;81.80;;;;;;5069074;28;20033;-85
2023/08/08 08:28:10;;;;;;;5.28;1.85;;;15.20;81.80;;;;;;5069458;28;20033;-85
2023/08/08 08:30:38;;;;;;;9.93;2.05;;;15.20;81.80;;;;;;5073048;28;20036;-80
2023/08/08 08:33:07;;;;;;;7.95;1.92;;;15.20;81.50;;;;;;5042162;28;20045;-83
2023/08/08 08:35:35;;;;;;;4.40;2.17;;;15.20;81.60;;;;;;5069965;28;20035;-86
2023/08/08 08:38:03;;;;;;;6.93;2.10;;;15.20;81.50;;;;;;5072637;28;20044;-84
2023/08/08 08:40:32;;;;;;;5.20;2.25;;;15.20;81.50;;;;;;5051141;28;20119;-84
2023/08/08 08:42:59;;;;;;;5.03;2.03;;;15.20;81.60;;;;;;5034859;28;20386;-79
2023/08/08 08:45:26;;;;;;;6.85;2.30;;;15.20;81.60;;;;;;5051296;28;20039;-80
2023/08/08 08:47:54;;;;;;;5.97;2.13;;;15.20;81.50;;;;;;5050914;28;20071;-77
2023/08/08 08:50:22;;;;;;;5.82;2.10;;;15.20;81.70;;;;;;5034967;28;20111;-83
2023/08/08 08:52:49;;;;;;;8.02;2.00;;;15.20;81.80;;;;;;5034002;28;20553;-79
2023/08/08 08:55:17;;;;;;;5.53;2.78;;;15.10;81.80;;;;;;5051100;28;20498;-82
2023/08/08 08:57:45;;;;;;;9.45;2.88;;;15.10;81.80;;;;;;5068014;28;20036;-76
2023/08/08 09:00:13;;;;;;;8.95;2.80;;;15.10;82.00;;;;;;5070409;28;20036;-76
2023/08/08 09:02:41;;;;;;;4.25;1.85;;;15.00;81.90;;;;;;5089402;28;20063;-77
2023/08/08 09:05:17;;;;;;;5.78;2.55;;;15.10;81.90;;;;;;5054891;28;20112;-78
2023/08/08 09:07:44;;;;;;;5.22;2.13;;;15.10;81.90;;;;;;5072027;28;20036;-78
2023/08/08 09:10:11;;;;;;;5.35;2.17;;;15.10;81.90;;;;;;5091376;28;20036;-77
2023/08/08 09:12:38;;;;;;;9.60;2.55;;;15.00;81.90;;;;;;5092778;28;20059;-83
2023/08/08 09:15:06;;;;;;;8.45;2.42;;;15.10;81.90;;;;;;5092476;28;20040;-80
2023/08/08 09:17:33;;;;;;;8.02;2.30;;;15.00;82.10;;;;;;5092865;28;20032;-80
2023/08/08 09:20:01;;;;;;;5.60;2.22;;;15.00;82.00;;;;;;5090525;28;20097;-80
2023/08/08 09:22:28;;;;;;;12.38;2.58;;;15.00;81.80;;;;;;5090959;28;20112;-80
2023/08/08 09:24:56;;;;;;;7.97;2.53;;;15.00;81.80;;;;;;5053444;28;20029;-80
2023/08/08 09:27:23;;;;;;;7.45;2.65;;;15.00;81.90;;;;;;5088341;28;20024;-79
2023/08/08 09:29:50;;;;;;;5.75;2.63;;;15.00;82.00;;;;;;5081889;28;20028;-80
2023/08/08 09:32:19;;;;;;;8.43;2.55;;;15.00;82.20;;;;;;5051789;28;20041;-80
2023/08/08 09:34:46;;;;;;;6.30;2.60;;;15.00;82.30;;;;;;5074401;28;20043;-79
2023/08/08 09:37:14;;;;;;;6.90;2.55;;;15.00;82.30;;;;;;5092504;28;20024;-80
2023/08/08 09:39:41;;;;;;;6.90;2.55;;;15.00;82.50;;;;;;5040849;28;20521;-81
2023/08/08 09:42:11;;;;;;;11.35;2.60;;;14.90;82.90;;;;;;5074348;28;20036;-82
2023/08/08 09:44:39;;;;;;;15.93;3.25;;;14.90;82.70;;;;;;5092648;28;20036;-84
2023/08/08 09:47:06;;;;;;;8.65;3.05;;;14.90;82.50;;;;;;5074083;28;20059;-84
2023/08/08 09:49:34;;;;;;;8.95;2.53;;;14.80;82.70;;;;;;5091491;28;20507;-79
2023/08/08 09:52:02;;;;;;;9.35;2.83;;;14.80;82.90;;;;;;5073345;28;20047;-81
2023/08/08 09:54:29;;;;;;;10.88;3.08;;;14.80;83.10;;;;;;5091952;28;20032;-83
2023/08/08 09:56:56;;;;;;;9.48;3.63;;;14.80;83.20;;;;;;5074166;28;20047;-78
2023/08/08 09:59:24;;;;;;;7.10;3.15;;;14.70;83.40;;;;;;5073975;28;20089;-78
2023/08/08 10:01:51;;;;;;;9.25;3.13;;;14.70;83.40;;;;;;5073695;28;20024;-79
2023/08/08 10:04:18;;;;;;;7.47;3.22;;;14.70;83.60;;;;;;5073842;28;20470;-81
2023/08/08 10:06:45;;;;;;;9.60;3.42;;;14.70;83.70;;;;;;5091631;28;20024;-78
2023/08/08 10:09:12;;;;;;;6.05;3.05;;;14.60;84.00;;;;;;5073624;28;20370;-79
2023/08/08 10:11:41;;;;;;;11.65;3.40;;;14.60;84.30;;;;;;5091585;28;20103;-80
2023/08/08 10:14:10;;;;;;;8.30;3.15;;;14.60;84.40;;;;;;5057628;28;20085;-83
2023/08/08 10:16:38;;;;;;;12.57;3.30;;;14.50;84.30;;;;;;5047120;28;20025;-74
2023/08/08 10:19:05;;;;;;;9.63;3.53;;;14.50;84.40;;;;;;5048841;28;20518;-78
2023/08/08 10:21:37;;;;;;;10.77;3.30;;;14.50;84.40;;;;;;5055902;28;20037;-77
2023/08/08 10:24:08;;;;;;;8.38;3.53;;;14.50;84.30;;;;;;5048140;28;20047;-78
2023/08/08 10:26:57;;;;;;;10.68;4.13;;;14.50;84.40;;;;;;5037579;28;20044;-77
2023/08/08 10:29:25;;;;;;;8.43;3.65;;;14.40;84.50;;;;;;5056015;28;20123;-75
2023/08/08 10:31:54;;;;;;;7.93;3.33;;;14.40;84.70;;;;;;5069794;28;20048;-77
2023/08/08 10:34:21;;;;;;;10.70;3.90;;;14.40;84.60;;;;;;5044844;28;20068;-76
2023/08/08 10:36:54;;;;;;;10.90;3.75;;;14.30;84.70;;;;;;5067116;28;20033;-76
2023/08/08 10:39:22;;;;;;;12.70;4.00;;;14.30;84.90;;;;;;5023525;28;20175;-76
2023/08/08 10:41:50;;;;;;;7.70;3.33;;;14.20;85.10;;;;;;5052372;28;20510;-76
2023/08/08 10:44:24;;;;;;;8.77;3.50;;;14.30;85.20;;;;;;5049095;28;20426;-76
2023/08/08 10:46:53;;;;;;;11.48;4.10;;;14.20;85.40;;;;;;5066736;28;20036;-79
2023/08/08 10:49:20;;;;;;;10.98;4.10;;;14.20;85.50;;;;;;5061190;28;20048;-79
2023/08/08 10:51:48;;;;;;;9.73;4.18;;;14.20;85.30;;;;;;5034636;28;20087;-76
2023/08/08 10:54:30;;;;;;;12.85;4.25;;;14.20;85.60;;;;;;5058808;28;20053;-76
2023/08/08 10:56:59;;;;;;;14.80;5.00;;;14.20;85.70;;;;;;5051666;28;20037;-76
2023/08/08 10:59:27;;;;;;;17.98;4.72;;;14.20;85.70;;;;;;5060672;28;20049;-76
2023/08/08 11:01:56;;;;;;;12.38;4.68;;;14.20;85.70;;;;;;5047997;28;20044;-76
2023/08/08 11:04:25;;;;;;;10.55;4.72;;;14.20;85.90;;;;;;5050487;28;20122;-77
2023/08/08 11:06:56;;;;;;;13.10;4.70;;;14.20;85.80;;;;;;5066812;28;20036;-76
2023/08/08 11:09:23;;;;;;;20.08;4.82;;;14.10;85.80;;;;;;5032924;28;20044;-75
2023/08/08 11:11:51;;;;;;;13.07;5.60;;;14.10;86.00;;;;;;5051877;28;20032;-75
2023/08/08 11:14:19;;;;;;;13.13;4.93;;;14.10;86.00;;;;;;5055535;28;20056;-75
2023/08/08 11:16:47;;;;;;;13.90;4.75;;;14.10;86.00;;;;;;5052736;28;20044;-75
2023/08/08 11:19:16;;;;;;;12.63;4.63;;;14.00;86.00;;;;;;5070787;28;20041;-75
2023/08/08 11:21:44;;;;;;;10.48;4.60;;;14.10;86.10;;;;;;5053856;28;20068;-75
2023/08/08 11:24:11;;;;;;;17.20;4.97;;;14.10;86.00;;;;;;5085604;28;20076;-76
2023/08/08 11:26:40;;;;;;;9.60;4.18;;;14.10;86.10;;;;;;5067662;28;20090;-77
2023/08/08 11:29:07;;;;;;;13.15;4.57;;;14.10;86.00;;;;;;5087097;28;20115;-77
2023/08/08 11:31:38;;;;;;;11.38;4.30;;;14.10;85.80;;;;;;5084613;28;20047;-77
2023/08/08 11:34:05;;;;;;;11.30;3.90;;;14.10;85.80;;;;;;5072117;28;20071;-77
2023/08/08 11:36:33;;;;;;;13.38;4.38;;;14.10;85.90;;;;;;5071608;28;20029;-77
2023/08/08 11:39:13;;;;;;;10.05;4.63;;;14.10;86.00;;;;;;5051953;28;20131;-77
2023/08/08 11:41:40;;;;;;;10.68;3.92;;;14.10;85.90;;;;;;5052933;28;20461;-75
2023/08/08 11:44:08;;;;;;;9.18;3.60;;;14.10;85.80;;;;;;5069770;28;20046;-76
2023/08/08 11:46:35;;;;;;;9.00;4.22;;;14.10;85.80;;;;;;5055359;28;20111;-75
2023/08/08 11:49:06;;;;;;;13.02;4.28;;;14.00;85.80;;;;;;5073367;28;20044;-76
2023/08/08 11:51:34;;;;;;;7.45;4.10;;;14.00;85.80;;;;;;5069584;28;20115;-74
2023/08/08 11:54:03;;;;;;;13.70;4.60;;;14.00;85.90;;;;;;5103738;28;20036;-76
2023/08/08 11:56:33;;;;;;;8.45;4.00;;;14.00;85.80;;;;;;5082764;28;20033;-76
2023/08/08 11:59:00;;;;;;;7.25;3.97;;;13.90;86.00;;;;;;5059530;28;20060;-76
2023/08/08 12:01:28;;;;;;;8.85;4.60;;;13.90;85.90;;;;;;5054352;28;20040;-75
2023/08/08 12:03:56;;;;;;;13.27;5.03;;;13.90;85.90;;;;;;5088743;28;20032;-75
2023/08/08 12:06:23;;;;;;;12.80;5.05;;;13.90;86.00;;;;;;5071698;28;20028;-76
2023/08/08 12:08:50;;;;;;;8.60;4.45;;;13.90;86.00;;;;;;5072296;28;20094;-76
2023/08/08 12:11:17;;;;;;;9.68;4.78;;;13.80;86.20;;;;;;5077437;28;20029;-75
2023/08/08 12:13:45;;;;;;;10.73;5.35;;;13.90;86.30;;;;;;5091608;28;20044;-77
2023/08/08 12:16:13;;;;;;;8.82;4.70;;;13.80;86.30;;;;;;5065198;28;20068;-77
2023/08/08 12:18:41;;;;;;;14.20;4.88;;;13.80;86.20;;;;;;5077468;28;20043;-76
2023/08/08 12:21:09;;;;;;;12.77;4.68;;;13.80;86.40;;;;;;5082462;28;20432;-77
2023/08/08 12:23:37;;;;;;;7.82;4.70;;;13.80;86.30;;;;;;5071930;28;20060;-77
2023/08/08 12:26:08;;;;;;;10.25;4.35;;;13.80;86.50;;;;;;5071552;28;20029;-77
2023/08/08 12:28:35;;;;;;;15.32;4.93;;;13.70;86.50;;;;;;5038462;28;20036;-77
2023/08/08 12:31:02;;;;;;;11.30;4.70;;;13.70;86.80;;;;;;5072064;28;20021;-76
2023/08/08 12:33:30;;;;;;;10.82;4.45;;;13.70;86.90;;;;;;5071720;28;20043;-77
2023/08/08 12:35:57;;;;;;;11.57;4.55;;;13.70;87.00;;;;;;5071813;28;20044;-77
2023/08/08 12:38:24;;;;;;;13.43;5.32;;;13.60;87.00;;;;;;5071510;28;20075;-76
2023/08/08 12:40:52;;;;;;;8.38;4.53;;;13.60;87.30;;;;;;5071825;28;20521;-77
2023/08/08 12:43:19;;;;;;;9.45;4.90;;;13.50;87.40;;;;;;5071877;28;20033;-77
2023/08/08 12:45:47;;;;;;;11.23;4.88;;;13.50;87.50;;;;;;5057249;28;20036;-77
2023/08/08 12:48:14;;;;;;;9.30;4.85;;;13.50;87.60;;;;;;5054080;28;20028;-77
2023/08/08 12:50:42;;;;;;;17.73;4.63;;;13.50;87.70;;;;;;5077511;28;20035;-77
2023/08/08 12:53:10;;;;;;;13.05;4.43;;;13.50;87.70;;;;;;5075583;28;20024;-77
2023/08/08 12:55:39;;;;;;;14.05;5.35;;;13.50;87.40;;;;;;5058918;28;20119;-77
2023/08/08 12:58:06;;;;;;;9.20;4.30;;;13.40;87.50;;;;;;5075482;28;20036;-77
2023/08/08 13:00:33;;;;;;;10.15;3.83;;;13.50;87.40;;;;;;5057550;28;20376;-77
2023/08/08 13:03:00;;;;;;;10.32;3.80;;;13.40;87.30;;;;;;5058169;28;20029;-77
2023/08/08 13:05:28;;;;;;;13.18;4.22;;;13.40;87.30;;;;;;5090509;28;20032;-77
2023/08/08 13:07:55;;;;;;;9.90;4.10;;;13.30;87.20;;;;;;5089146;28;20029;-77
2023/08/08 13:10:22;;;;;;;9.00;3.97;;;13.30;87.30;;;;;;5060851;28;20499;-77
2023/08/08 13:12:50;;;;;;;9.00;3.72;;;13.30;87.30;;;;;;5074867;28;20187;-77
2023/08/08 13:15:17;;;;;;;7.55;3.63;;;13.30;87.30;;;;;;5081172;28;20494;-77
2023/08/08 13:17:44;;;;;;;9.30;3.75;;;13.20;87.40;;;;;;5076918;28;20039;-77
2023/08/08 13:20:12;;;;;;;9.85;3.70;;;13.20;87.50;;;;;;5095315;28;20506;-77
2023/08/08 13:22:42;;;;;;;6.95;3.40;;;13.20;87.40;;;;;;5060882;28;20450;-77
2023/08/08 13:25:10;;;;;;;8.65;3.28;;;13.10;87.50;;;;;;5077236;28;20123;-77
2023/08/08 13:27:37;;;;;;;7.95;3.50;;;13.10;87.40;;;;;;5094803;28;20039;-77
2023/08/08 13:30:07;;;;;;;7.55;3.38;;;13.10;87.30;;;;;;5095218;28;20033;-77
2023/08/08 13:32:34;;;;;;;8.32;3.45;;;13.10;87.30;;;;;;5094971;28;20039;-77
2023/08/08 13:35:01;;;;;;;4.95;3.10;;;13.00;87.50;;;;;;5094879;28;20048;-77
2023/08/08 13:37:29;;;;;;;10.02;3.38;;;13.00;87.50;;;;;;5094591;28;20024;-76
2023/08/08 13:39:56;;;;;;;10.40;3.63;;;13.00;87.40;;;;;;5095077;28;20508;-76
2023/08/08 13:42:23;;;;;;;7.10;3.67;;;13.00;87.40;;;;;;5094385;28;20099;-76
2023/08/08 13:44:50;;;;;;;9.55;3.72;;;13.00;87.30;;;;;;5074515;28;20033;-76
2023/08/08 13:47:17;;;;;;;6.97;3.22;;;13.00;87.20;;;;;;5074393;28;20032;-76
2023/08/08 13:49:45;;;;;;;7.63;3.72;;;13.00;87.50;;;;;;5074958;28;20033;-76
2023/08/08 13:52:12;;;;;;;5.35;2.95;;;12.90;87.70;;;;;;5085680;28;20046;-76
2023/08/08 13:54:39;;;;;;;7.68;3.67;;;12.90;87.50;;;;;;5094385;28;20036;-76
2023/08/08 13:57:06;;;;;;;6.38;3.50;;;12.90;87.60;;;;;;5093938;28;20043;-75
2023/08/08 13:59:35;;;;;;;10.63;4.03;;;12.80;87.60;;;;;;5056791;28;20130;-76
2023/08/08 14:02:02;;;;;;;6.90;3.03;;;12.80;87.70;;;;;;5074450;28;20032;-76
2023/08/08 14:04:29;;;;;;;10.30;3.17;;;12.80;87.70;;;;;;5074300;28;20036;-76
2023/08/08 14:06:56;;;;;;;9.15;3.90;;;12.80;87.90;;;;;;5074505;28;20445;-76
2023/08/08 14:09:23;;;;;;;8.85;3.95;;;12.80;88.10;;;;;;5074028;28;20044;-76
2023/08/08 14:11:51;;;;;;;6.72;3.47;;;12.80;88.10;;;;;;5087016;28;20107;-76
2023/08/08 14:14:18;;;;;;;9.07;3.72;;;12.80;88.20;;;;;;5094157;28;20485;-76
2023/08/08 14:16:45;;;;;;;9.48;4.43;;;12.70;88.20;;;;;;5094281;28;20067;-76
2023/08/08 14:19:13;;;;;;;8.30;4.40;;;12.70;88.30;;;;;;5093440;28;20036;-76
2023/08/08 14:21:40;;;;;;;8.82;3.90;;;12.70;88.50;;;;;;5093832;28;20506;-76
2023/08/08 14:24:07;;;;;;;9.13;4.15;;;12.70;88.60;;;;;;5093186;28;20078;-76
2023/08/08 14:26:35;;;;;;;6.53;3.83;;;12.70;88.80;;;;;;5094252;28;20032;-76
2023/08/08 14:29:02;;;;;;;10.52;4.22;;;12.70;89.00;;;;;;5075789;28;20486;-76
2023/08/08 14:31:29;;;;;;;6.90;4.20;;;12.70;89.00;;;;;;5094012;28;20036;-76
2023/08/08 14:33:56;;;;;;;11.25;4.15;;;12.70;89.10;;;;;;5093948;28;20090;-76
2023/08/08 14:36:24;;;;;;;9.25;4.30;;;12.70;89.10;;;;;;5075646;28;20025;-76
2023/08/08 14:38:51;;;;;;;16.60;4.43;;;12.70;89.20;;;;;;5086770;28;20041;-76
2023/08/08 14:41:18;;;;;;;9.35;4.57;;;12.70;89.10;;;;;;5054229;28;20036;-76
2023/08/08 14:43:45;;;;;;;15.32;4.68;;;12.60;89.10;;;;;;5072312;28;20067;-76
2023/08/08 14:46:12;;;;;;;8.90;4.22;;;12.60;89.20;;;;;;5072075;28;20028;-76
2023/08/08 17:55:01;;;;;;;6.65;3.45;;;12.60;89.20;;;;;;5099188;28;20531;-76
2023/08/08 17:57:29;;;;;;;6.70;4.05;;;12.50;89.10;;;;;;5103983;28;20096;-76
2023/08/08 17:59:56;;;;;;;7.85;4.35;;;12.50;89.20;;;;;;5114346;28;20108;-76
2023/08/08 18:02:23;;;;;;;11.48;4.30;;;12.50;89.10;;;;;;5114663;28;20034;-76
2023/08/08 18:04:51;;;;;;;9.18;3.95;;;12.50;88.90;;;;;;5115266;28;20482;-76
2023/08/08 18:07:18;;;;;;;8.30;4.32;;;12.50;89.10;;;;;;5097041;28;20118;-76
2023/08/08 18:09:47;;;;;;;8.05;4.40;;;12.40;88.90;;;;;;5115228;28;20028;-76
2023/08/08 18:12:14;;;;;;;10.27;4.97;;;12.50;88.80;;;;;;5107211;28;20035;-76
2023/08/08 18:14:41;;;;;;;8.80;4.65;;;12.40;88.90;;;;;;5094438;28;20047;-76
2023/08/08 18:17:09;;;;;;;13.85;5.00;;;12.40;88.80;;;;;;5094376;28;20066;-76
2023/08/08 18:19:36;;;;;;;8.00;4.13;;;12.40;88.80;;;;;;5094655;28;20035;-76
2023/08/08 18:22:05;;;;;;;14.40;5.25;;;12.40;89.10;;;;;;5076618;28;20038;-76
2023/08/08 18:24:32;;;;;;;8.60;4.72;;;12.40;89.10;;;;;;5076303;28;20397;-76
2023/08/08 18:27:00;;;;;;;11.20;4.93;;;12.30;89.10;;;;;;5081341;28;20115;-76
2023/08/08 18:29:27;;;;;;;14.45;5.00;;;12.30;88.80;;;;;;5075835;28;20085;-76
2023/08/08 18:31:54;;;;;;;6.50;4.60;;;12.30;88.60;;;;;;5094040;28;20082;-76
2023/08/08 18:34:22;;;;;;;11.07;4.60;;;12.30;88.60;;;;;;5093894;28;20065;-76
2023/08/08 18:36:49;;;;;;;10.40;5.15;;;12.30;88.70;;;;;;5109034;28;20100;-76
2023/08/08 18:39:16;;;;;;;10.50;5.30;;;12.30;88.50;;;;;;5093982;28;20028;-76
2023/08/08 18:41:43;;;;;;;9.90;5.07;;;12.30;88.70;;;;;;5074840;28;20558;-75
2023/08/08 18:44:10;;;;;;;9.18;4.97;;;12.20;88.80;;;;;;5112612;28;20037;-76
2023/08/08 18:46:38;;;;;;;10.30;5.10;;;12.20;88.90;;;;;;5114123;28;20019;-76
2023/08/08 18:49:05;;;;;;;13.27;5.50;;;12.20;89.20;;;;;;5104984;28;20036;-76
2023/08/08 18:51:32;;;;;;;8.18;4.88;;;12.20;89.20;;;;;;5112530;28;20073;-76
2023/08/08 18:53:59;;;;;;;10.27;5.18;;;12.20;89.00;;;;;;5113605;28;20047;-76
2023/08/08 18:56:27;;;;;;;7.97;4.90;;;12.20;89.40;;;;;;5095545;28;20032;-77
2023/08/08 18:58:54;;;;;;;8.80;4.80;;;12.20;89.40;;;;;;5110816;28;20801;-76
2023/08/08 19:01:21;;;;;;;11.13;5.07;;;12.20;89.20;;;;;;5094725;28;20558;-75
2023/08/08 19:03:48;;;;;;;9.93;4.93;;;12.20;89.30;;;;;;5114023;28;20038;-76
2023/08/08 19:06:17;;;;;;;8.40;4.50;;;12.20;89.30;;;;;;5112423;28;20028;-76
2023/08/08 19:08:44;;;;;;;8.57;4.88;;;12.20;89.40;;;;;;5095412;28;20053;-75
2023/08/08 19:11:11;;;;;;;7.70;4.80;;;12.20;89.60;;;;;;5095487;28;20497;-76
2023/08/08 19:13:39;;;;;;;16.35;4.85;;;12.20;89.90;;;;;;5087413;28;20044;-76
2023/08/08 19:16:06;;;;;;;11.68;5.15;;;12.20;89.80;;;;;;5094135;28;20520;-76
2023/08/08 19:18:34;;;;;;;10.80;4.90;;;12.20;89.60;;;;;;5107320;28;20081;-76
2023/08/08 19:21:01;;;;;;;8.15;5.03;;;12.20;89.70;;;;;;5113037;28;20043;-77
2023/08/08 23:16:34;;;;;;;;;;;13.30;87.40;;;;;;5100200;28;20047;-75
2023/08/08 23:19:02;;;;;;;8.88;6.47;;;13.40;87.30;;;;;;5105490;28;20440;-74
2023/08/08 23:21:29;;;;;;;14.38;7.00;;;13.40;87.20;;;;;;5106561;28;20162;-74
2023/08/08 23:23:56;;;;;;;12.07;6.40;;;13.50;87.10;;;;;;5091975;28;20366;-74
2023/08/08 23:26:24;;;;;;;11.15;6.40;;;13.50;87.00;;;;;;5103762;28;20469;-74
2023/08/08 23:28:51;;;;;;;8.93;5.68;;;13.50;86.90;;;;;;5110736;28;20027;-75
2023/08/08 23:31:19;;;;;;;11.82;6.28;;;13.60;86.90;;;;;;5112558;28;20028;-74
2023/08/08 23:33:47;;;;;;;9.07;6.20;;;13.50;86.90;;;;;;5083838;28;20136;-74
2023/08/08 23:36:14;;;;;;;10.80;6.20;;;13.60;86.80;;;;;;5074430;28;20105;-74
2023/08/08 23:38:42;;;;;;;12.00;5.43;;;13.60;86.90;;;;;;5092585;28;20028;-74
2023/08/08 23:41:10;;;;;;;7.45;5.65;;;13.70;86.80;;;;;;5093002;28;20036;-74
2023/08/08 23:43:38;;;;;;;11.68;6.60;;;13.70;86.80;;;;;;5092472;28;20040;-74
2023/08/08 23:46:05;;;;;;;10.75;7.00;;;13.70;86.60;;;;;;5075306;28;20359;-74
2023/08/08 23:48:32;;;;;;;10.98;5.70;;;13.70;86.70;;;;;;5074608;28;20032;-74
2023/08/08 23:51:00;;;;;;;8.40;5.80;;;13.80;86.30;;;;;;5058506;28;20077;-74
2023/08/08 23:53:27;;;;;;;10.82;5.80;;;13.80;86.50;;;;;;5092744;28;20066;-74
2023/08/08 23:55:54;;;;;;;10.13;5.70;;;13.90;86.60;;;;;;5074779;28;20062;-74
2023/08/08 23:58:22;;;;;;;8.68;5.43;;;13.90;86.00;;;;;;5092702;28;20032;-74
